Time;durP1;ratioP1;P1;durP2;ratioP2;P2;SDS_P1;SDS_P2;PMS_P1;PMS_P2;Temp;Humidity;BMP_temperature;BMP_pressure;BME280_temperature;BME280_humidity;BME280_pressure;Samples;Min_cycle;Max_cycle;Signal;HPM_P1;HPM_P2
2023/06/10 00:01:24;;;;;;;10.80;5.93;;;24.50;78.50;;;;;;5136238;27;20035;-81
2023/06/10 00:03:53;;;;;;;11.60;5.32;;;24.40;78.80;;;;;;5136115;27;20035;-82
2023/06/10 00:06:21;;;;;;;9.60;5.72;;;24.40;79.30;;;;;;5136072;27;20035;-80
2023/06/10 00:08:47;;;;;;;9.13;5.10;;;24.30;79.60;;;;;;5136300;27;20033;-81
2023/06/10 00:11:13;;;;;;;10.82;5.30;;;24.30;79.80;;;;;;5116987;27;20492;-80
2023/06/10 00:13:40;;;;;;;13.07;5.70;;;24.30;80.40;;;;;;5134655;27;20042;-82
2023/06/10 00:16:05;;;;;;;11.82;6.15;;;24.20;80.90;;;;;;5135687;27;20071;-80
2023/06/10 00:18:31;;;;;;;10.88;6.00;;;24.10;81.30;;;;;;5135485;27;20074;-80
2023/06/10 00:21:02;;;;;;;13.18;5.65;;;24.10;81.50;;;;;;5135809;27;20073;-79
2023/06/10 00:23:31;;;;;;;10.93;5.55;;;24.10;82.00;;;;;;5135459;27;20084;-81
2023/06/10 00:25:59;;;;;;;13.15;6.47;;;24.00;82.30;;;;;;5135430;27;20567;-80
2023/06/10 00:28:25;;;;;;;10.50;5.50;;;24.00;82.70;;;;;;5135210;27;20527;-80
2023/06/10 00:30:51;;;;;;;12.80;6.13;;;23.90;83.40;;;;;;5135330;27;20106;-80
2023/06/10 00:33:17;;;;;;;11.88;6.10;;;23.90;83.90;;;;;;5135236;27;20114;-80
2023/06/10 00:35:43;;;;;;;12.70;6.35;;;23.80;84.20;;;;;;5135213;27;20086;-80
2023/06/10 00:38:08;;;;;;;12.40;6.05;;;23.80;84.70;;;;;;5135160;27;20050;-80
2023/06/10 00:40:40;;;;;;;14.80;6.30;;;23.80;85.20;;;;;;5135241;27;20035;-81
2023/06/10 00:43:07;;;;;;;13.45;6.40;;;23.80;85.40;;;;;;5134993;27;20038;-79
2023/06/10 00:45:32;;;;;;;13.85;6.88;;;23.80;85.70;;;;;;5135147;27;20083;-80
2023/06/10 00:48:03;;;;;;;15.43;6.70;;;23.70;86.30;;;;;;5134669;27;20130;-80
2023/06/10 00:50:28;;;;;;;15.30;7.20;;;23.70;86.80;;;;;;5134698;27;20495;-81
2023/06/10 00:52:55;;;;;;;11.70;6.38;;;23.70;86.80;;;;;;5135084;27;20031;-80
2023/06/10 00:55:21;;;;;;;12.38;6.95;;;23.80;87.00;;;;;;5134914;27;20096;-80
2023/06/10 00:57:51;;;;;;;12.40;7.30;;;23.80;87.00;;;;;;5134666;27;20031;-80
2023/06/10 01:00:17;;;;;;;15.50;7.43;;;23.80;87.20;;;;;;5134603;27;20045;-80
2023/06/10 01:02:43;;;;;;;11.13;6.97;;;23.80;87.50;;;;;;5134433;27;20047;-80
2023/06/10 01:05:09;;;;;;;16.60;7.20;;;23.80;88.10;;;;;;5135136;27;20069;-80
2023/06/10 01:07:46;;;;;;;11.80;7.78;;;23.80;87.80;;;;;;5135423;27;20088;-79
2023/06/10 01:10:18;;;;;;;14.25;7.40;;;23.80;88.20;;;;;;5134715;27;20119;-80
2023/06/10 01:13:08;;;;;;;15.52;6.57;;;23.70;88.60;;;;;;5134542;27;20110;-81
2023/06/10 01:15:34;;;;;;;12.23;7.38;;;23.70;88.70;;;;;;5134276;27;20084;-81
2023/06/10 01:18:03;;;;;;;13.75;7.28;;;23.70;89.00;;;;;;5134456;27;20064;-80
2023/06/10 01:20:31;;;;;;;14.95;7.43;;;23.70;89.30;;;;;;5134019;27;20115;-79
2023/06/10 01:23:02;;;;;;;16.10;7.50;;;23.60;89.50;;;;;;5134336;27;20092;-81
2023/06/10 01:25:32;;;;;;;13.82;7.40;;;23.60;90.00;;;;;;5133631;27;20072;-81
2023/06/10 01:28:04;;;;;;;15.10;7.03;;;23.60;90.10;;;;;;5134006;27;20095;-80
2023/06/10 01:30:37;;;;;;;12.13;7.10;;;23.60;90.20;;;;;;5134477;27;20039;-80
2023/06/10 01:33:06;;;;;;;14.95;7.32;;;23.60;90.30;;;;;;5134062;27;20106;-81
2023/06/10 01:35:35;;;;;;;15.63;8.13;;;23.60;90.30;;;;;;5133948;27;20035;-81
2023/06/10 01:38:02;;;;;;;15.60;7.40;;;23.60;90.50;;;;;;5115589;27;20472;-80
2023/06/10 01:40:29;;;;;;;16.60;7.70;;;23.60;90.60;;;;;;5134118;27;20031;-80
2023/06/10 01:42:56;;;;;;;14.32;7.85;;;23.60;90.60;;;;;;5134208;27;20038;-79
2023/06/10 01:45:21;;;;;;;15.27;6.93;;;23.50;90.70;;;;;;5134040;27;20038;-80
2023/06/10 01:47:47;;;;;;;10.77;7.53;;;23.50;90.80;;;;;;5133916;27;20043;-79
2023/06/10 01:50:13;;;;;;;12.25;7.72;;;23.50;90.90;;;;;;5115185;27;20122;-79
2023/06/10 01:52:38;;;;;;;11.88;7.43;;;23.50;91.00;;;;;;5133569;27;20035;-79
2023/06/10 01:55:04;;;;;;;10.35;7.43;;;23.40;91.00;;;;;;5133699;27;20067;-79
2023/06/10 01:57:30;;;;;;;12.82;7.20;;;23.30;91.10;;;;;;5133726;27;20097;-79
2023/06/10 01:59:56;;;;;;;18.88;8.32;;;23.30;91.20;;;;;;5133788;27;20457;-80
2023/06/10 02:02:22;;;;;;;14.25;7.70;;;23.30;91.20;;;;;;5133459;27;20054;-79
2023/06/10 02:04:47;;;;;;;12.75;7.43;;;23.40;91.20;;;;;;5133497;27;20038;-80
2023/06/10 02:07:13;;;;;;;15.25;8.38;;;23.30;91.30;;;;;;5133376;27;20043;-80
2023/06/10 02:09:39;;;;;;;16.10;8.07;;;23.30;91.30;;;;;;5133676;27;20121;-80
2023/06/10 02:12:06;;;;;;;15.50;8.30;;;23.30;91.30;;;;;;5133139;27;20035;-80
2023/06/10 02:14:33;;;;;;;12.82;7.63;;;23.30;91.40;;;;;;5133324;27;20502;-80
2023/06/10 02:16:58;;;;;;;14.52;7.90;;;23.20;91.40;;;;;;5133110;27;20096;-79
2023/06/10 02:19:26;;;;;;;18.45;8.63;;;23.30;91.60;;;;;;5133335;27;20468;-80
2023/06/10 02:21:52;;;;;;;14.85;8.43;;;23.30;91.60;;;;;;5133705;27;20066;-81
2023/06/10 02:24:18;;;;;;;14.82;8.52;;;23.20;91.70;;;;;;5135992;27;20050;-79
2023/06/10 02:26:44;;;;;;;16.42;8.23;;;23.10;91.70;;;;;;5145310;27;20035;-80
2023/06/10 02:29:09;;;;;;;17.45;9.50;;;23.10;91.90;;;;;;5144710;27;20066;-80
2023/06/10 02:31:35;;;;;;;16.60;10.38;;;23.10;92.00;;;;;;5140302;28;20039;-80
2023/06/10 02:34:02;;;;;;;13.50;8.38;;;23.00;92.10;;;;;;5115382;28;20050;-80
2023/06/10 02:36:28;;;;;;;16.13;8.63;;;23.00;92.20;;;;;;5135220;27;20361;-80
2023/06/10 02:38:54;;;;;;;15.52;8.20;;;23.00;92.50;;;;;;5119259;27;20088;-79
2023/06/10 02:41:21;;;;;;;16.23;7.55;;;22.90;92.50;;;;;;5139516;27;20035;-79
2023/06/10 02:43:47;;;;;;;18.95;8.20;;;22.90;92.50;;;;;;5138730;27;20102;-80
2023/06/10 02:46:13;;;;;;;13.60;7.97;;;22.90;92.50;;;;;;5137691;27;20111;-79
2023/06/10 02:48:43;;;;;;;12.98;7.38;;;22.90;92.50;;;;;;5137443;27;20039;-80
2023/06/10 02:51:10;;;;;;;20.30;7.80;;;22.80;92.50;;;;;;5137619;27;20038;-81
2023/06/10 02:53:35;;;;;;;12.25;7.30;;;22.80;92.30;;;;;;5137304;27;20123;-80
2023/06/10 02:56:02;;;;;;;17.63;7.38;;;22.80;92.30;;;;;;5137439;27;20046;-80
2023/06/10 02:58:27;;;;;;;15.32;7.20;;;22.80;92.30;;;;;;5137455;27;20056;-79
2023/06/10 03:00:53;;;;;;;13.52;7.03;;;22.90;92.20;;;;;;5137028;27;20027;-79
2023/06/10 03:03:20;;;;;;;12.43;6.93;;;23.00;92.10;;;;;;5137070;27;20365;-80
2023/06/10 03:05:45;;;;;;;18.30;8.35;;;23.00;92.10;;;;;;5137380;27;20027;-80
2023/06/10 03:08:11;;;;;;;15.52;7.85;;;23.00;92.10;;;;;;5136993;27;20508;-79
2023/06/10 03:10:36;;;;;;;17.25;8.70;;;23.10;92.10;;;;;;5137101;27;20036;-80
2023/06/10 03:13:02;;;;;;;13.95;8.38;;;23.00;92.10;;;;;;5138288;27;20400;-80
2023/06/10 03:15:28;;;;;;;13.90;7.95;;;23.00;92.20;;;;;;5137126;27;20042;-80
2023/06/10 03:17:55;;;;;;;14.40;8.27;;;22.90;92.30;;;;;;5136398;27;20035;-79
2023/06/10 03:20:21;;;;;;;12.43;7.93;;;22.90;92.40;;;;;;5136721;27;20032;-80
2023/06/10 03:22:47;;;;;;;16.38;8.80;;;22.90;92.40;;;;;;5136867;27;20038;-79
2023/06/10 03:25:16;;;;;;;14.95;8.48;;;22.80;92.30;;;;;;5136537;27;20038;-80
2023/06/10 03:27:42;;;;;;;13.13;7.97;;;22.80;92.40;;;;;;5136410;27;20047;-80
2023/06/10 03:30:08;;;;;;;12.13;7.65;;;22.70;92.30;;;;;;5136531;27;20027;-79
2023/06/10 03:32:35;;;;;;;16.27;8.32;;;22.70;92.50;;;;;;5136449;27;20062;-80
2023/06/10 03:35:01;;;;;;;15.18;8.18;;;22.60;92.50;;;;;;5136586;27;20020;-80
2023/06/10 03:37:26;;;;;;;12.32;7.80;;;22.60;92.50;;;;;;5136315;27;20042;-80
2023/06/10 03:39:52;;;;;;;14.43;8.70;;;22.60;92.40;;;;;;5136496;27;20051;-80
2023/06/10 03:42:18;;;;;;;14.52;8.38;;;22.60;92.40;;;;;;5136418;27;20035;-81
2023/06/10 03:44:44;;;;;;;14.95;8.05;;;22.60;92.50;;;;;;5136354;27;20341;-80
2023/06/10 03:47:09;;;;;;;14.75;7.88;;;22.70;92.50;;;;;;5136098;27;20224;-81
2023/06/10 03:49:36;;;;;;;15.25;7.90;;;22.70;92.30;;;;;;5136466;27;20019;-80
2023/06/10 03:52:02;;;;;;;13.82;7.53;;;22.70;92.40;;;;;;5136443;27;20070;-79
2023/06/10 03:54:27;;;;;;;11.77;7.10;;;22.70;92.10;;;;;;5136129;27;20072;-80
2023/06/10 03:56:53;;;;;;;11.77;6.57;;;22.70;91.90;;;;;;5135944;27;20046;-80
2023/06/10 03:59:19;;;;;;;14.90;7.72;;;22.80;91.80;;;;;;5136164;27;20099;-79
2023/06/10 04:01:45;;;;;;;10.98;7.05;;;22.80;91.60;;;;;;5136112;27;20445;-80
2023/06/10 04:04:18;;;;;;;16.20;7.57;;;22.80;91.60;;;;;;5135998;27;20032;-80
2023/06/10 04:06:44;;;;;;;15.23;8.07;;;22.70;91.50;;;;;;5135668;27;20039;-79
2023/06/10 04:09:10;;;;;;;10.73;7.18;;;22.70;91.40;;;;;;5135548;27;20489;-80
2023/06/10 04:11:36;;;;;;;11.88;6.90;;;22.70;91.40;;;;;;5135641;27;20027;-81
2023/06/10 04:14:02;;;;;;;14.55;8.43;;;22.70;91.40;;;;;;5135577;27;20507;-80
2023/06/10 04:16:28;;;;;;;15.18;7.65;;;22.70;91.40;;;;;;5135720;27;20039;-80
2023/06/10 04:18:54;;;;;;;14.40;6.70;;;22.80;91.30;;;;;;5135711;27;20019;-80
2023/06/10 04:21:21;;;;;;;11.75;7.20;;;22.80;91.20;;;;;;5135586;27;20039;-80
2023/06/10 04:23:47;;;;;;;12.15;6.93;;;22.90;91.00;;;;;;5136105;27;20027;-80
2023/06/10 04:26:13;;;;;;;12.80;7.28;;;22.90;90.90;;;;;;5135640;27;20047;-79
2023/06/10 04:28:38;;;;;;;13.40;7.47;;;22.80;91.00;;;;;;5135258;27;20404;-80
2023/06/10 04:31:04;;;;;;;14.02;7.13;;;22.90;91.00;;;;;;5135516;27;20104;-80
2023/06/10 04:33:30;;;;;;;14.35;7.55;;;22.80;91.10;;;;;;5135497;27;20032;-80
2023/06/10 04:35:57;;;;;;;16.38;7.97;;;22.80;91.10;;;;;;5135435;27;20430;-80
2023/06/10 04:38:22;;;;;;;12.18;7.00;;;22.80;91.10;;;;;;5136876;27;20032;-79
2023/06/10 04:40:48;;;;;;;14.63;7.72;;;22.80;91.20;;;;;;5137712;27;20076;-79
2023/06/10 04:43:14;;;;;;;13.23;8.48;;;22.80;91.20;;;;;;5135204;27;20027;-79
2023/06/10 04:45:40;;;;;;;16.45;8.30;;;22.80;91.30;;;;;;5118885;27;20066;-80
2023/06/10 04:48:07;;;;;;;12.75;7.32;;;22.70;91.30;;;;;;5143916;27;20035;-79
2023/06/10 04:50:33;;;;;;;10.57;7.43;;;22.70;91.50;;;;;;5142547;27;20031;-80
2023/06/10 04:52:59;;;;;;;11.55;7.03;;;22.70;91.80;;;;;;5136747;27;20107;-79
2023/06/10 04:55:25;;;;;;;11.80;7.68;;;22.70;91.40;;;;;;5134961;27;20109;-80
2023/06/10 04:57:51;;;;;;;13.05;7.97;;;22.70;91.30;;;;;;5134979;27;20408;-80
2023/06/10 05:00:18;;;;;;;12.48;6.90;;;22.70;91.40;;;;;;5134188;27;20453;-80
2023/06/10 05:02:44;;;;;;;12.07;6.97;;;22.70;91.30;;;;;;5134967;27;20030;-80
2023/06/10 05:05:10;;;;;;;13.40;6.53;;;22.70;91.30;;;;;;5134904;27;20103;-80
2023/06/10 05:07:36;;;;;;;14.27;6.25;;;22.70;91.20;;;;;;5134834;27;20061;-80
2023/06/10 05:10:02;;;;;;;13.98;6.95;;;22.70;91.00;;;;;;5134641;27;20476;-80
2023/06/10 05:12:28;;;;;;;14.55;6.68;;;22.70;90.80;;;;;;5134460;27;20118;-80
2023/06/10 05:14:54;;;;;;;12.00;6.20;;;22.60;90.80;;;;;;5134692;27;20070;-79
2023/06/10 05:17:20;;;;;;;11.07;6.45;;;22.60;90.80;;;;;;5134431;27;20114;-80
2023/06/10 05:19:47;;;;;;;11.52;6.53;;;22.60;90.90;;;;;;5134451;27;20046;-80
2023/06/10 05:22:13;;;;;;;12.15;6.10;;;22.60;90.80;;;;;;5134484;27;20035;-79
2023/06/10 05:24:39;;;;;;;9.68;5.95;;;22.60;90.70;;;;;;5134422;27;20031;-80
2023/06/10 05:27:06;;;;;;;14.98;5.68;;;22.70;90.40;;;;;;5134267;27;20579;-79
2023/06/10 05:29:33;;;;;;;9.82;5.57;;;22.70;90.20;;;;;;5134197;27;20030;-81
2023/06/10 05:32:02;;;;;;;15.50;6.22;;;22.80;90.10;;;;;;5134144;27;20531;-81
2023/06/10 05:34:31;;;;;;;10.20;5.72;;;22.90;89.90;;;;;;5116192;27;20035;-81
2023/06/10 05:36:57;;;;;;;12.73;5.50;;;23.00;89.80;;;;;;5134307;27;20042;-79
2023/06/10 05:39:23;;;;;;;11.25;5.47;;;23.10;89.00;;;;;;5134070;27;20031;-79
2023/06/10 05:41:48;;;;;;;15.75;6.20;;;23.30;88.80;;;;;;5134253;27;20118;-79
2023/06/10 05:44:14;;;;;;;11.48;6.05;;;23.20;88.20;;;;;;5115269;27;20111;-80
2023/06/10 05:46:40;;;;;;;9.10;5.35;;;23.30;88.00;;;;;;5133477;27;20051;-81
2023/06/10 05:49:06;;;;;;;11.80;4.95;;;23.20;87.80;;;;;;5133915;27;20035;-79
2023/06/10 05:51:31;;;;;;;12.85;4.97;;;23.10;87.40;;;;;;5133997;27;20027;-82
2023/06/10 05:53:57;;;;;;;10.43;4.93;;;23.00;87.20;;;;;;5133728;27;20108;-81
2023/06/10 05:56:23;;;;;;;9.40;4.38;;;23.00;87.40;;;;;;5133324;27;20047;-80
2023/06/10 05:58:49;;;;;;;9.82;4.78;;;23.00;87.60;;;;;;5133910;27;20031;-80
2023/06/10 06:01:15;;;;;;;10.10;4.68;;;23.00;87.40;;;;;;5135162;27;20083;-79
2023/06/10 06:03:41;;;;;;;11.02;5.18;;;23.00;87.10;;;;;;5133566;27;20373;-79
2023/06/10 06:06:06;;;;;;;8.68;5.18;;;23.00;86.70;;;;;;5135993;27;20039;-80
2023/06/10 06:08:32;;;;;;;9.70;5.28;;;23.10;86.70;;;;;;5134994;27;20134;-79
2023/06/10 06:10:58;;;;;;;11.70;4.50;;;23.80;85.50;;;;;;5132475;27;20506;-79
2023/06/10 06:13:24;;;;;;;12.95;5.80;;;24.60;83.10;;;;;;5133552;27;20102;-80
2023/06/10 06:15:50;;;;;;;9.77;4.75;;;25.30;80.70;;;;;;5133369;27;20046;-80
2023/06/10 06:18:16;;;;;;;10.07;4.43;;;25.90;78.90;;;;;;5114725;28;20027;-79
2023/06/10 06:20:42;;;;;;;8.18;4.00;;;26.50;77.20;;;;;;5133392;27;20502;-80
2023/06/10 06:23:09;;;;;;;7.82;3.75;;;27.10;75.50;;;;;;5133409;27;20486;-80
2023/06/10 06:25:35;;;;;;;10.52;4.70;;;27.50;73.90;;;;;;5133015;27;20081;-79
2023/06/10 06:28:02;;;;;;;8.70;4.00;;;27.90;72.80;;;;;;5133109;27;20047;-80
2023/06/10 06:30:27;;;;;;;12.40;4.05;;;28.10;71.70;;;;;;5139462;27;20059;-80
2023/06/10 06:32:53;;;;;;;8.32;3.80;;;28.00;71.00;;;;;;5133123;28;20084;-82
2023/06/10 06:35:19;;;;;;;8.40;4.22;;;27.70;70.90;;;;;;5132690;28;20088;-80
2023/06/10 06:37:45;;;;;;;11.27;3.90;;;27.20;71.50;;;;;;5132916;28;20027;-78
2023/06/10 06:40:11;;;;;;;11.98;3.83;;;26.90;72.10;;;;;;5132640;28;20041;-80
2023/06/10 06:42:36;;;;;;;8.27;3.80;;;26.60;71.90;;;;;;5132879;28;20395;-80
2023/06/10 06:45:02;;;;;;;10.98;4.47;;;26.30;72.70;;;;;;5132939;28;20043;-81
2023/06/10 06:47:28;;;;;;;8.52;3.80;;;26.10;73.10;;;;;;5133409;28;20139;-79
2023/06/10 06:49:54;;;;;;;10.50;3.50;;;26.20;72.70;;;;;;5133498;28;20084;-82
2023/06/10 06:52:19;;;;;;;9.75;4.32;;;26.30;72.30;;;;;;5132689;28;20118;-80
2023/06/10 06:54:45;;;;;;;8.00;4.32;;;26.50;72.10;;;;;;5133232;28;20047;-82
2023/06/10 06:57:11;;;;;;;10.30;4.00;;;26.60;71.60;;;;;;5122089;28;20172;-81
2023/06/10 06:59:36;;;;;;;8.27;3.58;;;27.10;71.60;;;;;;5133285;28;20065;-80
2023/06/10 07:02:03;;;;;;;15.35;5.03;;;27.50;70.00;;;;;;5132948;28;20110;-82
2023/06/10 07:04:29;;;;;;;18.55;4.88;;;27.50;69.80;;;;;;5114410;28;20035;-81
2023/06/10 07:06:54;;;;;;;9.30;3.90;;;27.50;69.60;;;;;;5133285;28;20038;-81
2023/06/10 07:09:20;;;;;;;7.22;3.58;;;27.40;69.30;;;;;;5133947;28;20031;-80
2023/06/10 07:11:46;;;;;;;13.48;4.85;;;27.40;69.70;;;;;;5133165;28;20055;-81
2023/06/10 07:14:11;;;;;;;8.50;3.30;;;27.40;69.30;;;;;;5134161;28;20118;-80
2023/06/10 07:16:37;;;;;;;16.08;4.35;;;27.20;69.10;;;;;;5134992;28;20035;-81
2023/06/10 07:19:03;;;;;;;29.35;5.97;;;27.10;69.30;;;;;;5133644;28;20036;-81
2023/06/10 07:21:30;;;;;;;13.82;4.88;;;27.00;69.10;;;;;;5132823;27;20035;-81
2023/06/10 07:23:56;;;;;;;20.70;4.60;;;27.00;68.90;;;;;;5136449;27;20499;-82
2023/06/10 07:26:25;;;;;;;13.98;4.47;;;27.10;68.80;;;;;;5136013;27;20028;-81
2023/06/10 07:28:51;;;;;;;8.40;4.43;;;27.10;68.80;;;;;;5117997;27;20031;-81
2023/06/10 07:31:17;;;;;;;12.48;4.15;;;27.00;68.90;;;;;;5136118;27;20027;-80
2023/06/10 07:33:43;;;;;;;11.27;4.20;;;26.90;69.00;;;;;;5139474;27;20399;-80
2023/06/10 07:36:09;;;;;;;9.35;3.47;;;26.90;69.10;;;;;;5138836;27;20368;-79
2023/06/10 07:38:35;;;;;;;8.48;4.43;;;27.20;69.00;;;;;;5137691;27;20027;-81
2023/06/10 07:41:01;;;;;;;12.00;4.47;;;27.60;68.50;;;;;;5137655;27;20106;-81
2023/06/10 07:43:27;;;;;;;13.13;4.57;;;27.90;68.50;;;;;;5100340;27;20065;-79
2023/06/10 07:45:52;;;;;;;6.75;3.47;;;28.00;67.20;;;;;;5136398;27;20035;-80
2023/06/10 07:48:18;;;;;;;9.38;4.20;;;28.10;66.90;;;;;;5135956;27;20043;-81
2023/06/10 07:50:45;;;;;;;9.93;4.88;;;28.20;66.70;;;;;;5135853;27;20106;-82
2023/06/10 07:53:10;;;;;;;11.38;4.40;;;28.30;66.40;;;;;;5136217;27;20488;-80
2023/06/10 07:55:36;;;;;;;88.65;13.68;;;28.30;67.10;;;;;;5136805;27;20039;-82
2023/06/10 07:58:02;;;;;;;17.52;5.00;;;28.30;66.30;;;;;;5136156;27;20072;-81
2023/06/10 08:00:27;;;;;;;9.20;4.15;;;28.40;66.10;;;;;;5135793;27;20075;-81
2023/06/10 08:02:53;;;;;;;10.65;4.18;;;28.40;65.70;;;;;;5135596;27;20040;-81
2023/06/10 08:05:20;;;;;;;9.98;4.10;;;28.40;65.50;;;;;;5135448;27;20107;-82
2023/06/10 08:07:45;;;;;;;13.73;4.25;;;28.40;65.00;;;;;;5135363;27;20027;-81
2023/06/10 08:10:11;;;;;;;13.55;4.35;;;28.30;65.40;;;;;;5135396;27;20402;-80
2023/06/10 08:12:37;;;;;;;8.20;3.50;;;28.30;65.30;;;;;;5135463;27;20081;-80
2023/06/10 08:15:04;;;;;;;6.68;3.47;;;28.20;64.20;;;;;;5136221;27;20054;-81
2023/06/10 08:17:30;;;;;;;9.60;3.88;;;28.10;64.30;;;;;;5117296;27;20457;-79
2023/06/10 08:19:56;;;;;;;12.32;3.90;;;28.20;64.10;;;;;;5135703;27;20480;-81
2023/06/10 08:22:22;;;;;;;9.93;3.58;;;28.10;63.90;;;;;;5135487;27;20046;-81
2023/06/10 08:24:48;;;;;;;9.63;3.50;;;28.10;63.90;;;;;;5135131;27;20023;-80
2023/06/10 08:27:13;;;;;;;15.30;3.83;;;28.00;63.60;;;;;;5135470;27;20043;-81
2023/06/10 08:29:39;;;;;;;54.78;44.47;;;28.00;63.60;;;;;;5135365;27;20027;-81
2023/06/10 08:32:06;;;;;;;9.43;4.72;;;27.90;62.80;;;;;;5135423;27;20034;-78
2023/06/10 08:34:35;;;;;;;6.28;3.50;;;27.90;62.40;;;;;;5134190;27;20510;-81
2023/06/10 08:37:01;;;;;;;7.75;3.53;;;27.90;62.90;;;;;;5135536;27;20031;-80
2023/06/10 08:39:26;;;;;;;8.45;4.13;;;28.00;63.30;;;;;;5135039;27;20449;-80
2023/06/10 08:42:07;;;;;;;11.32;3.88;;;27.90;63.70;;;;;;5135256;27;20063;-80
2023/06/10 08:44:37;;;;;;;7.40;3.72;;;28.00;63.90;;;;;;5135236;27;20030;-82
2023/06/10 08:47:09;;;;;;;10.60;4.07;;;28.00;64.00;;;;;;5134904;27;20521;-83
2023/06/10 08:49:38;;;;;;;8.85;4.00;;;27.90;64.00;;;;;;5135189;27;20031;-81
2023/06/10 08:52:06;;;;;;;8.40;3.92;;;27.90;64.10;;;;;;5134926;27;20126;-81
2023/06/10 08:54:37;;;;;;;9.88;4.00;;;27.80;64.20;;;;;;5117918;27;20043;-80
2023/06/10 08:57:06;;;;;;;8.82;3.85;;;27.70;63.80;;;;;;5135649;27;20043;-82
2023/06/10 08:59:31;;;;;;;9.73;3.60;;;27.60;63.30;;;;;;5137538;27;20172;-82
2023/06/10 09:01:58;;;;;;;10.05;3.35;;;27.50;62.90;;;;;;5137994;27;20131;-82
2023/06/10 09:04:24;;;;;;;12.02;4.18;;;27.50;61.80;;;;;;5135097;27;20024;-83
2023/06/10 09:06:51;;;;;;;7.90;3.15;;;27.50;61.00;;;;;;5135135;27;20069;-82
2023/06/10 09:09:18;;;;;;;7.97;3.35;;;27.50;60.70;;;;;;5134653;27;20042;-82
2023/06/10 09:11:44;;;;;;;7.72;3.13;;;27.50;60.50;;;;;;5134789;27;20397;-82
2023/06/10 09:14:11;;;;;;;7.95;3.22;;;27.40;60.40;;;;;;5135296;27;20023;-81
2023/06/10 09:16:38;;;;;;;8.65;3.65;;;27.40;60.70;;;;;;5138470;27;20121;-81
2023/06/10 09:19:07;;;;;;;7.53;3.38;;;27.50;60.90;;;;;;5136177;27;20457;-82
2023/06/10 09:21:34;;;;;;;7.15;3.60;;;27.50;60.80;;;;;;5134626;27;20118;-81
2023/06/10 09:24:00;;;;;;;9.05;3.20;;;27.50;60.30;;;;;;5134224;27;20028;-83
2023/06/10 09:26:29;;;;;;;8.02;3.58;;;27.60;60.40;;;;;;5134402;27;20031;-82
2023/06/10 09:29:05;;;;;;;9.55;3.00;;;27.70;59.70;;;;;;5134435;27;20031;-83
2023/06/10 09:31:31;;;;;;;11.07;3.67;;;27.70;59.60;;;;;;5134763;27;20035;-82
2023/06/10 09:34:14;;;;;;;9.60;3.75;;;27.60;59.30;;;;;;5138610;27;20031;-80
2023/06/10 09:36:40;;;;;;;13.07;4.18;;;27.60;59.30;;;;;;5144602;27;20111;-81
2023/06/10 09:39:15;;;;;;;7.68;3.13;;;27.60;59.60;;;;;;5147200;27;20035;-81
2023/06/10 09:41:41;;;;;;;8.52;3.83;;;27.60;59.00;;;;;;5119617;27;20504;-80
2023/06/10 09:44:19;;;;;;;8.27;3.67;;;27.60;59.20;;;;;;5134349;27;20041;-82
2023/06/10 09:46:46;;;;;;;8.13;3.75;;;27.70;59.40;;;;;;5133690;27;20122;-80
2023/06/10 09:49:13;;;;;;;9.20;3.13;;;27.70;59.10;;;;;;5133775;27;20123;-83
2023/06/10 09:51:49;;;;;;;8.10;3.35;;;27.80;59.10;;;;;;5134585;27;20031;-82
2023/06/10 09:54:15;;;;;;;9.98;3.67;;;27.80;59.10;;;;;;5118593;27;20088;-82
2023/06/10 09:56:42;;;;;;;8.80;4.05;;;27.90;58.80;;;;;;5133899;27;20031;-83
2023/06/10 09:59:08;;;;;;;9.10;3.40;;;28.00;58.50;;;;;;5133621;27;20088;-81
2023/06/10 10:01:34;;;;;;;7.45;3.50;;;28.00;58.30;;;;;;5133372;27;20031;-82
2023/06/10 10:04:03;;;;;;;10.98;3.72;;;28.10;57.80;;;;;;5133916;27;20148;-80
2023/06/10 10:06:30;;;;;;;9.13;3.25;;;28.10;57.60;;;;;;5115137;27;20050;-81
2023/06/10 10:08:56;;;;;;;11.05;4.00;;;28.20;57.80;;;;;;5133887;27;20101;-81
2023/06/10 10:11:23;;;;;;;8.35;3.75;;;28.20;57.60;;;;;;5115211;27;20039;-82
2023/06/10 10:13:50;;;;;;;9.43;3.55;;;28.30;57.50;;;;;;5135154;27;20035;-82
2023/06/10 10:16:42;;;;;;;9.25;3.63;;;28.30;57.40;;;;;;5134053;27;20027;-82
2023/06/10 10:19:15;;;;;;;11.02;3.90;;;28.40;57.50;;;;;;5128757;27;20092;-81
2023/06/10 10:21:59;;;;;;;13.65;3.83;;;28.40;57.80;;;;;;5115009;28;20027;-82
2023/06/10 10:24:52;;;;;;;11.52;4.07;;;28.40;57.80;;;;;;5133690;27;20035;-81
2023/06/10 10:27:26;;;;;;;15.02;4.07;;;28.50;58.00;;;;;;5124134;27;20142;-80
2023/06/10 10:29:54;;;;;;;10.55;4.05;;;28.50;58.20;;;;;;5133754;27;20035;-80
2023/06/10 10:32:31;;;;;;;9.40;3.67;;;28.50;58.20;;;;;;5133546;28;20031;-81
2023/06/10 10:35:09;;;;;;;12.18;4.20;;;28.60;58.20;;;;;;5115071;28;20034;-81
2023/06/10 10:37:36;;;;;;;10.27;4.10;;;28.70;58.10;;;;;;5133349;28;20035;-81
2023/06/10 10:40:03;;;;;;;11.48;4.25;;;28.80;58.30;;;;;;5133381;28;20020;-81
2023/06/10 10:42:30;;;;;;;11.00;4.22;;;28.80;58.00;;;;;;5132658;28;20035;-79
2023/06/10 10:44:56;;;;;;;9.40;4.13;;;28.90;58.00;;;;;;5133168;28;20049;-82
2023/06/10 10:47:26;;;;;;;15.20;4.43;;;28.90;57.80;;;;;;5132941;28;20095;-79
2023/06/10 10:49:58;;;;;;;13.88;4.40;;;28.90;57.40;;;;;;5133859;28;20214;-81
2023/06/10 10:52:25;;;;;;;9.85;4.13;;;29.00;57.90;;;;;;5140219;28;20031;-81
2023/06/10 10:54:54;;;;;;;11.73;4.30;;;29.00;57.70;;;;;;5136978;28;20055;-82
2023/06/10 10:57:21;;;;;;;13.32;4.18;;;29.00;57.50;;;;;;5134439;27;20038;-81
2023/06/10 11:00:04;;;;;;;11.10;4.10;;;29.00;57.80;;;;;;5137537;27;20027;-81
2023/06/10 11:02:41;;;;;;;16.77;4.60;;;29.00;57.50;;;;;;5119212;27;20027;-81
2023/06/10 11:05:08;;;;;;;12.23;4.03;;;29.00;56.90;;;;;;5137033;27;20264;-81
2023/06/10 11:07:35;;;;;;;16.33;4.70;;;29.00;57.10;;;;;;5136987;27;20130;-82
2023/06/10 11:10:09;;;;;;;11.35;4.28;;;29.00;57.10;;;;;;5137440;27;20565;-81
2023/06/10 11:12:46;;;;;;;15.15;4.20;;;29.00;57.10;;;;;;5137271;27;20484;-81
2023/06/10 11:15:13;;;;;;;14.43;4.22;;;29.10;57.20;;;;;;5136801;27;20110;-81
2023/06/10 11:18:12;;;;;;;10.20;3.78;;;29.20;56.90;;;;;;5136584;27;20458;-81
2023/06/10 11:20:49;;;;;;;11.90;4.38;;;29.30;56.80;;;;;;5109885;27;20503;-82
2023/06/10 11:23:27;;;;;;;11.77;4.22;;;29.40;56.70;;;;;;5136368;27;20049;-80
2023/06/10 11:26:31;;;;;;;11.07;3.63;;;29.50;57.00;;;;;;5136470;27;20027;-82
2023/06/10 11:28:57;;;;;;;11.93;3.70;;;29.50;55.90;;;;;;5136323;27;20087;-82
2023/06/10 11:31:26;;;;;;;11.80;3.58;;;29.50;56.10;;;;;;5136286;27;20118;-82
2023/06/10 11:33:54;;;;;;;11.52;3.42;;;29.50;55.60;;;;;;5136377;27;20032;-83
2023/06/10 11:36:21;;;;;;;11.18;3.67;;;29.60;55.70;;;;;;5136293;27;20401;-80
2023/06/10 11:38:47;;;;;;;10.85;3.97;;;29.70;55.60;;;;;;5136419;27;20039;-81
2023/06/10 11:41:14;;;;;;;12.55;3.80;;;29.70;55.50;;;;;;5136266;27;20031;-81
2023/06/10 11:43:44;;;;;;;11.45;3.78;;;29.80;55.60;;;;;;5136553;27;20047;-80
2023/06/10 11:46:14;;;;;;;11.10;3.92;;;29.90;55.40;;;;;;5117865;27;20030;-82
2023/06/10 11:48:47;;;;;;;13.13;3.92;;;30.00;55.10;;;;;;5120997;27;20047;-82
2023/06/10 11:51:13;;;;;;;9.75;3.90;;;29.90;55.90;;;;;;5140047;27;20029;-80
2023/06/10 11:53:39;;;;;;;13.85;4.07;;;29.90;56.00;;;;;;5137463;27;20387;-81
2023/06/10 11:56:05;;;;;;;15.35;4.40;;;29.70;56.10;;;;;;5136299;27;20408;-81
2023/06/10 11:58:30;;;;;;;14.32;4.43;;;29.60;56.30;;;;;;5136682;27;20073;-81
2023/06/10 12:00:57;;;;;;;12.43;3.58;;;29.50;56.40;;;;;;5136458;27;20441;-80
2023/06/10 12:03:24;;;;;;;10.98;4.10;;;29.60;56.40;;;;;;5136020;27;20034;-81
2023/06/10 12:06:01;;;;;;;9.10;3.88;;;29.60;56.60;;;;;;5136165;27;20034;-81
2023/06/10 12:08:30;;;;;;;10.43;3.75;;;29.50;56.50;;;;;;5134540;27;20047;-82
2023/06/10 12:10:56;;;;;;;13.02;3.85;;;29.60;56.50;;;;;;5136096;27;20106;-83
2023/06/10 12:13:23;;;;;;;12.30;4.05;;;29.60;56.20;;;;;;5135918;27;20074;-81
2023/06/10 12:15:49;;;;;;;11.98;3.85;;;29.60;56.10;;;;;;5136029;27;20039;-81
2023/06/10 12:18:20;;;;;;;13.73;3.38;;;29.70;55.80;;;;;;5135938;27;20047;-80
2023/06/10 12:20:46;;;;;;;10.70;3.60;;;29.80;55.60;;;;;;5135825;27;20108;-81
2023/06/10 12:23:13;;;;;;;16.38;4.15;;;29.80;55.40;;;;;;5135505;27;20546;-82
2023/06/10 12:25:39;;;;;;;9.60;3.70;;;29.80;55.10;;;;;;5135713;27;20057;-83
2023/06/10 12:28:06;;;;;;;9.05;3.28;;;29.80;54.70;;;;;;5135734;27;20055;-82
2023/06/10 12:30:32;;;;;;;13.43;3.80;;;29.80;54.60;;;;;;5136432;27;20035;-82
2023/06/10 12:32:58;;;;;;;14.02;3.55;;;29.70;54.50;;;;;;5135184;27;20055;-82
2023/06/10 12:35:26;;;;;;;11.45;3.55;;;29.60;54.30;;;;;;5135237;27;20032;-81
2023/06/10 12:38:02;;;;;;;12.18;3.60;;;29.70;54.20;;;;;;5135260;27;20096;-81
2023/06/10 12:40:32;;;;;;;9.10;3.90;;;29.70;53.70;;;;;;5134833;27;20037;-82